sensor_id;sensor_type;location;lat;lon;timestamp;pressure;altitude;pressure_sealevel;temperature;humidity
56241;BME280;42155;53.096;23.226;2022-09-09T00:00:48;100188.94;;;12.33;53.50
56241;BME280;42155;53.096;23.226;2022-09-09T00:03:02;100188.25;;;12.31;54.03
56241;BME280;42155;53.096;23.226;2022-09-09T00:05:25;100176.69;;;12.20;53.89
56241;BME280;42155;53.096;23.226;2022-09-09T00:09:47;100179.41;;;12.30;53.47
56241;BME280;42155;53.096;23.226;2022-09-09T00:12:01;100190.91;;;12.31;53.29
56241;BME280;42155;53.096;23.226;2022-09-09T00:14:03;100179.81;;;12.26;53.72
56241;BME280;42155;53.096;23.226;2022-09-09T00:16:27;100197.69;;;12.23;53.87
56241;BME280;42155;53.096;23.226;2022-09-09T00:18:58;100187.06;;;12.23;53.22
56241;BME280;42155;53.096;23.226;2022-09-09T00:21:06;100182.84;;;12.21;53.83
56241;BME280;42155;53.096;23.226;2022-09-09T00:23:27;100200.34;;;12.23;53.76
56241;BME280;42155;53.096;23.226;2022-09-09T00:25:37;100190.00;;;12.20;53.57
56241;BME280;42155;53.096;23.226;2022-09-09T00:27:49;100193.50;;;12.21;53.48
56241;BME280;42155;53.096;23.226;2022-09-09T00:29:57;100187.31;;;12.20;53.66
56241;BME280;42155;53.096;23.226;2022-09-09T00:32:09;100188.66;;;12.15;53.79
56241;BME280;42155;53.096;23.226;2022-09-09T00:34:14;100189.50;;;12.15;53.49
56241;BME280;42155;53.096;23.226;2022-09-09T00:36:18;100176.72;;;12.09;53.69
56241;BME280;42155;53.096;23.226;2022-09-09T00:40:33;100179.91;;;12.03;54.02
56241;BME280;42155;53.096;23.226;2022-09-09T00:42:43;100179.91;;;12.03;53.82
56241;BME280;42155;53.096;23.226;2022-09-09T00:47:40;100191.00;;;12.08;54.09
56241;BME280;42155;53.096;23.226;2022-09-09T00:50:24;100184.69;;;12.09;53.83
56241;BME280;42155;53.096;23.226;2022-09-09T00:55:20;100190.53;;;12.03;53.92
56241;BME280;42155;53.096;23.226;2022-09-09T00:57:33;100192.00;;;11.96;53.82
56241;BME280;42155;53.096;23.226;2022-09-09T01:01:37;100176.19;;;11.94;54.00
56241;BME280;42155;53.096;23.226;2022-09-09T01:03:55;100179.81;;;11.93;53.93
56241;BME280;42155;53.096;23.226;2022-09-09T01:06:15;100173.66;;;11.93;54.75
56241;BME280;42155;53.096;23.226;2022-09-09T01:12:46;100163.50;;;11.87;54.00
56241;BME280;42155;53.096;23.226;2022-09-09T01:14:49;100138.41;;;11.68;54.69
56241;BME280;42155;53.096;23.226;2022-09-09T01:16:54;100165.47;;;11.85;54.81
56241;BME280;42155;53.096;23.226;2022-09-09T01:18:57;100162.06;;;11.83;55.00
56241;BME280;42155;53.096;23.226;2022-09-09T01:26:14;100164.97;;;11.80;54.98
56241;BME280;42155;53.096;23.226;2022-09-09T01:28:21;100168.72;;;11.77;55.04
56241;BME280;42155;53.096;23.226;2022-09-09T01:30:23;100155.78;;;11.72;54.90
56241;BME280;42155;53.096;23.226;2022-09-09T01:32:43;100165.06;;;11.78;55.14
56241;BME280;42155;53.096;23.226;2022-09-09T01:34:44;100167.03;;;11.76;55.09
56241;BME280;42155;53.096;23.226;2022-09-09T01:37:03;100169.81;;;11.75;54.65
56241;BME280;42155;53.096;23.226;2022-09-09T01:39:04;100175.13;;;11.75;55.08
56241;BME280;42155;53.096;23.226;2022-09-09T01:41:05;100181.31;;;11.75;54.58
56241;BME280;42155;53.096;23.226;2022-09-09T01:43:05;100186.03;;;11.71;54.40
56241;BME280;42155;53.096;23.226;2022-09-09T01:45:06;100177.06;;;11.72;55.28
56241;BME280;42155;53.096;23.226;2022-09-09T01:47:07;100173.94;;;11.67;54.93
56241;BME280;42155;53.096;23.226;2022-09-09T01:49:08;100170.31;;;11.68;55.17
56241;BME280;42155;53.096;23.226;2022-09-09T01:51:09;100165.97;;;11.67;54.82
56241;BME280;42155;53.096;23.226;2022-09-09T01:53:10;100154.34;;;11.68;54.99
56241;BME280;42155;53.096;23.226;2022-09-09T01:55:11;100156.06;;;11.69;55.32
56241;BME280;42155;53.096;23.226;2022-09-09T01:57:25;100155.09;;;11.70;54.67
56241;BME280;42155;53.096;23.226;2022-09-09T02:04:54;100139.16;;;11.59;55.35
56241;BME280;42155;53.096;23.226;2022-09-09T02:06:56;100145.06;;;11.63;54.80
56241;BME280;42155;53.096;23.226;2022-09-09T02:08:58;100138.06;;;11.62;55.44
56241;BME280;42155;53.096;23.226;2022-09-09T02:11:06;100132.75;;;11.62;55.12
56241;BME280;42155;53.096;23.226;2022-09-09T02:13:10;100145.81;;;11.65;54.93
56241;BME280;42155;53.096;23.226;2022-09-09T02:15:20;100136.72;;;11.67;55.18
56241;BME280;42155;53.096;23.226;2022-09-09T02:17:29;100136.47;;;11.70;55.05
56241;BME280;42155;53.096;23.226;2022-09-09T02:19:34;100130.19;;;11.71;55.29
56241;BME280;42155;53.096;23.226;2022-09-09T02:21:36;100129.84;;;11.65;54.95
56241;BME280;42155;53.096;23.226;2022-09-09T02:23:39;100130.56;;;11.67;54.71
56241;BME280;42155;53.096;23.226;2022-09-09T02:25:41;100129.97;;;11.63;54.83
56241;BME280;42155;53.096;23.226;2022-09-09T02:27:44;100132.63;;;11.63;55.58
56241;BME280;42155;53.096;23.226;2022-09-09T02:29:45;100128.53;;;11.59;55.29
56241;BME280;42155;53.096;23.226;2022-09-09T02:31:47;100131.66;;;11.64;55.63
56241;BME280;42155;53.096;23.226;2022-09-09T02:33:58;100135.56;;;11.60;55.05
56241;BME280;42155;53.096;23.226;2022-09-09T02:36:01;100122.38;;;11.59;55.51
56241;BME280;42155;53.096;23.226;2022-09-09T02:38:04;100133.00;;;11.59;55.25
56241;BME280;42155;53.096;23.226;2022-09-09T02:40:09;100057.03;;;11.13;55.26
56241;BME280;42155;53.096;23.226;2022-09-09T02:42:10;100120.59;;;11.48;55.65
56241;BME280;42155;53.096;23.226;2022-09-09T02:44:12;100124.69;;;11.52;55.16
56241;BME280;42155;53.096;23.226;2022-09-09T02:49:07;100127.97;;;11.56;55.25
56241;BME280;42155;53.096;23.226;2022-09-09T02:55:57;100122.28;;;11.49;56.04
56241;BME280;42155;53.096;23.226;2022-09-09T02:57:59;100121.81;;;11.44;55.76
56241;BME280;42155;53.096;23.226;2022-09-09T03:00:00;100132.44;;;11.44;55.88
56241;BME280;42155;53.096;23.226;2022-09-09T03:02:01;100133.66;;;11.40;55.59
56241;BME280;42155;53.096;23.226;2022-09-09T03:04:02;100128.34;;;11.40;55.71
56241;BME280;42155;53.096;23.226;2022-09-09T03:06:03;100127.38;;;11.41;55.77
56241;BME280;42155;53.096;23.226;2022-09-09T03:08:03;100128.34;;;11.40;55.53
56241;BME280;42155;53.096;23.226;2022-09-09T03:10:04;100128.59;;;11.37;55.67
56241;BME280;42155;53.096;23.226;2022-09-09T03:12:05;100120.16;;;11.32;55.80
56241;BME280;42155;53.096;23.226;2022-09-09T03:14:05;100122.94;;;11.30;56.13
56241;BME280;42155;53.096;23.226;2022-09-09T03:16:06;100123.06;;;11.29;56.42
56241;BME280;42155;53.096;23.226;2022-09-09T03:18:06;100110.88;;;11.26;55.92
56241;BME280;42155;53.096;23.226;2022-09-09T03:20:07;100120.66;;;11.26;55.96
56241;BME280;42155;53.096;23.226;2022-09-09T03:24:24;100112.72;;;11.14;56.95
56241;BME280;42155;53.096;23.226;2022-09-09T03:26:25;100111.28;;;11.10;56.54
56241;BME280;42155;53.096;23.226;2022-09-09T03:28:25;100090.38;;;10.94;56.82
56241;BME280;42155;53.096;23.226;2022-09-09T03:30:27;100103.53;;;11.07;57.26
56241;BME280;42155;53.096;23.226;2022-09-09T03:32:27;100107.88;;;11.08;56.84
56241;BME280;42155;53.096;23.226;2022-09-09T03:34:27;100107.88;;;11.08;56.99
56241;BME280;42155;53.096;23.226;2022-09-09T03:36:28;100116.31;;;11.13;57.06
56241;BME280;42155;53.096;23.226;2022-09-09T03:38:28;100108.25;;;11.15;56.46
56241;BME280;42155;53.096;23.226;2022-09-09T03:40:29;100077.00;;;10.96;56.65
56241;BME280;42155;53.096;23.226;2022-09-09T03:42:29;100108.84;;;11.18;57.12
56241;BME280;42155;53.096;23.226;2022-09-09T03:44:30;100106.91;;;11.20;57.07
56241;BME280;42155;53.096;23.226;2022-09-09T03:46:30;100045.50;;;10.80;56.84
56241;BME280;42155;53.096;23.226;2022-09-09T03:48:30;100107.59;;;11.22;57.07
56241;BME280;42155;53.096;23.226;2022-09-09T03:50:31;100099.41;;;11.26;56.87
56241;BME280;42155;53.096;23.226;2022-09-09T03:52:31;100105.22;;;11.19;56.56
56241;BME280;42155;53.096;23.226;2022-09-09T03:54:34;100081.69;;;11.04;56.74
56241;BME280;42155;53.096;23.226;2022-09-09T03:56:34;100109.31;;;11.12;56.67
56241;BME280;42155;53.096;23.226;2022-09-09T03:58:36;100104.00;;;11.12;57.01
56241;BME280;42155;53.096;23.226;2022-09-09T04:00:37;100102.34;;;11.00;57.45
56241;BME280;42155;53.096;23.226;2022-09-09T04:02:37;100103.41;;;11.09;57.02
56241;BME280;42155;53.096;23.226;2022-09-09T04:04:38;100049.00;;;10.81;56.69
56241;BME280;42155;53.096;23.226;2022-09-09T04:06:38;100081.34;;;10.97;57.23
56241;BME280;42155;53.096;23.226;2022-09-09T04:08:38;100126.22;;;11.11;56.82
56241;BME280;42155;53.096;23.226;2022-09-09T04:10:39;100101.47;;;11.11;57.29
56241;BME280;42155;53.096;23.226;2022-09-09T04:12:39;100099.06;;;11.08;57.16
56241;BME280;42155;53.096;23.226;2022-09-09T04:14:40;100100.88;;;11.07;57.12
56241;BME280;42155;53.096;23.226;2022-09-09T04:16:40;100094.97;;;11.04;56.98
56241;BME280;42155;53.096;23.226;2022-09-09T04:18:41;100095.69;;;11.06;56.82
56241;BME280;42155;53.096;23.226;2022-09-09T04:20:42;100105.34;;;11.07;57.53
56241;BME280;42155;53.096;23.226;2022-09-09T04:22:42;100099.19;;;11.06;57.11
56241;BME280;42155;53.096;23.226;2022-09-09T04:24:43;100104.50;;;11.06;57.51
56241;BME280;42155;53.096;23.226;2022-09-09T04:26:44;100101.84;;;11.06;57.16
56241;BME280;42155;53.096;23.226;2022-09-09T04:28:44;100073.63;;;10.94;57.16
56241;BME280;42155;53.096;23.226;2022-09-09T04:30:45;100100.03;;;11.07;57.01
56241;BME280;42155;53.096;23.226;2022-09-09T04:32:46;100097.16;;;11.10;57.57
56241;BME280;42155;53.096;23.226;2022-09-09T04:34:46;100074.09;;;10.99;57.69
56241;BME280;42155;53.096;23.226;2022-09-09T04:36:47;100017.06;;;10.71;57.08
56241;BME280;42155;53.096;23.226;2022-09-09T04:38:47;100006.69;;;10.57;57.47
56241;BME280;42155;53.096;23.226;2022-09-09T04:40:49;100036.72;;;10.80;57.52
56241;BME280;42155;53.096;23.226;2022-09-09T04:42:49;100044.44;;;10.83;57.42
56241;BME280;42155;53.096;23.226;2022-09-09T04:44:50;100092.06;;;11.07;57.30
56241;BME280;42155;53.096;23.226;2022-09-09T04:46:50;100100.16;;;11.05;57.45
56241;BME280;42155;53.096;23.226;2022-09-09T04:48:51;100098.00;;;10.99;57.93
56241;BME280;42155;53.096;23.226;2022-09-09T04:50:58;100095.47;;;10.98;58.20
56241;BME280;42155;53.096;23.226;2022-09-09T04:53:04;100092.69;;;10.99;58.10
56241;BME280;42155;53.096;23.226;2022-09-09T04:55:05;100093.41;;;11.01;58.11
56241;BME280;42155;53.096;23.226;2022-09-09T04:57:05;100097.38;;;11.07;57.94
56241;BME280;42155;53.096;23.226;2022-09-09T04:59:05;100105.97;;;11.10;57.73
56241;BME280;42155;53.096;23.226;2022-09-09T05:01:07;100109.31;;;11.12;57.53
56241;BME280;42155;53.096;23.226;2022-09-09T05:03:09;100098.69;;;11.12;57.90
56241;BME280;42155;53.096;23.226;2022-09-09T05:05:09;100107.41;;;11.14;57.67
56241;BME280;42155;53.096;23.226;2022-09-09T05:07:09;100107.25;;;11.16;58.00
56241;BME280;42155;53.096;23.226;2022-09-09T05:09:10;100039.88;;;10.74;57.70
56241;BME280;42155;53.096;23.226;2022-09-09T05:11:19;100107.13;;;11.17;57.71
56241;BME280;42155;53.096;23.226;2022-09-09T05:13:20;100105.69;;;11.13;57.61
56241;BME280;42155;53.096;23.226;2022-09-09T05:15:20;100117.06;;;11.15;57.57
56241;BME280;42155;53.096;23.226;2022-09-09T05:17:20;100110.63;;;11.18;57.68
56241;BME280;42155;53.096;23.226;2022-09-09T05:19:21;100122.59;;;11.24;58.02
56241;BME280;42155;53.096;23.226;2022-09-09T05:21:23;100116.69;;;11.20;57.34
56241;BME280;42155;53.096;23.226;2022-09-09T05:23:23;100118.47;;;11.31;57.70
56241;BME280;42155;53.096;23.226;2022-09-09T05:25:24;100122.09;;;11.30;58.00
56241;BME280;42155;53.096;23.226;2022-09-09T05:27:24;100113.00;;;11.32;57.92
56241;BME280;42155;53.096;23.226;2022-09-09T05:29:24;100121.84;;;11.33;58.04
56241;BME280;42155;53.096;23.226;2022-09-09T05:31:25;100091.94;;;11.19;57.73
56241;BME280;42155;53.096;23.226;2022-09-09T05:33:25;100121.34;;;11.39;57.67
56241;BME280;42155;53.096;23.226;2022-09-09T05:35:26;100111.31;;;11.42;57.33
56241;BME280;42155;53.096;23.226;2022-09-09T05:37:27;100118.91;;;11.47;57.78
56241;BME280;42155;53.096;23.226;2022-09-09T05:39:27;100103.97;;;11.35;57.23
56241;BME280;42155;53.096;23.226;2022-09-09T05:41:28;100103.81;;;11.36;57.71
56241;BME280;42155;53.096;23.226;2022-09-09T05:43:28;100115.53;;;11.45;57.82
56241;BME280;42155;53.096;23.226;2022-09-09T05:45:29;100050.94;;;11.01;57.44
56241;BME280;42155;53.096;23.226;2022-09-09T05:47:29;100129.78;;;11.44;57.50
56241;BME280;42155;53.096;23.226;2022-09-09T05:49:30;100060.34;;;11.05;57.81
56241;BME280;42155;53.096;23.226;2022-09-09T05:51:30;100129.56;;;11.47;57.92
56241;BME280;42155;53.096;23.226;2022-09-09T05:53:31;100135.44;;;11.51;57.65
56241;BME280;42155;53.096;23.226;2022-09-09T05:55:31;100143.03;;;11.55;57.79
56241;BME280;42155;53.096;23.226;2022-09-09T05:57:31;100074.31;;;11.18;57.76
56241;BME280;42155;53.096;23.226;2022-09-09T05:59:32;100135.78;;;11.57;57.87
56241;BME280;42155;53.096;23.226;2022-09-09T06:01:33;100135.56;;;11.60;57.74
56241;BME280;42155;53.096;23.226;2022-09-09T06:03:35;100140.88;;;11.60;57.87
56241;BME280;42155;53.096;23.226;2022-09-09T06:05:36;100146.19;;;11.60;57.89
56241;BME280;42155;53.096;23.226;2022-09-09T06:07:36;100145.59;;;11.57;57.67
56241;BME280;42155;53.096;23.226;2022-09-09T06:09:37;100124.94;;;11.49;57.87
56241;BME280;42155;53.096;23.226;2022-09-09T06:11:39;100129.28;;;11.50;58.10
56241;BME280;42155;53.096;23.226;2022-09-09T06:13:40;100147.59;;;11.64;57.87
56241;BME280;42155;53.096;23.226;2022-09-09T06:15:49;100091.19;;;11.29;57.48
56241;BME280;42155;53.096;23.226;2022-09-09T06:17:54;100058.16;;;11.10;58.20
56241;BME280;42155;53.096;23.226;2022-09-09T06:19:55;100142.94;;;11.57;57.80
56241;BME280;42155;53.096;23.226;2022-09-09T06:21:55;100148.84;;;11.60;58.40
56241;BME280;42155;53.096;23.226;2022-09-09T06:23:56;100121.19;;;11.52;57.63
56241;BME280;42155;53.096;23.226;2022-09-09T06:26:24;100143.84;;;11.67;57.77
56241;BME280;42155;53.096;23.226;2022-09-09T06:28:24;100141.19;;;11.67;58.35
56241;BME280;42155;53.096;23.226;2022-09-09T06:30:25;100133.94;;;11.69;57.67
56241;BME280;42155;53.096;23.226;2022-09-09T06:32:25;100138.16;;;11.71;58.35
56241;BME280;42155;53.096;23.226;2022-09-09T06:34:25;100135.50;;;11.71;58.33
56241;BME280;42155;53.096;23.226;2022-09-09T06:36:28;100147.22;;;11.69;58.65
56241;BME280;42155;53.096;23.226;2022-09-09T06:38:29;100129.63;;;11.57;58.03
56241;BME280;42155;53.096;23.226;2022-09-09T06:40:29;100146.38;;;11.68;58.58
56241;BME280;42155;53.096;23.226;2022-09-09T06:42:30;100133.84;;;11.59;58.04
56241;BME280;42155;53.096;23.226;2022-09-09T06:44:30;100124.91;;;11.60;58.50
56241;BME280;42155;53.096;23.226;2022-09-09T06:46:31;100150.75;;;11.69;58.43
56241;BME280;42155;53.096;23.226;2022-09-09T06:48:31;100128.03;;;11.65;58.29
56241;BME280;42155;53.096;23.226;2022-09-09T06:50:32;100145.16;;;11.72;58.45
56241;BME280;42155;53.096;23.226;2022-09-09T06:52:32;100136.47;;;11.70;59.40
56241;BME280;42155;53.096;23.226;2022-09-09T06:54:32;100143.25;;;11.75;59.54
56241;BME280;42155;53.096;23.226;2022-09-09T06:56:35;100142.97;;;11.78;59.17
56241;BME280;42155;53.096;23.226;2022-09-09T06:58:39;100143.69;;;11.80;59.67
56241;BME280;42155;53.096;23.226;2022-09-09T07:00:40;100116.22;;;11.58;59.50
56241;BME280;42155;53.096;23.226;2022-09-09T07:02:41;100138.63;;;11.77;59.58
56241;BME280;42155;53.096;23.226;2022-09-09T07:04:41;100150.38;;;11.74;59.93
56241;BME280;42155;53.096;23.226;2022-09-09T07:06:44;100148.94;;;11.70;59.70
56241;BME280;42155;53.096;23.226;2022-09-09T07:08:55;100150.00;;;11.67;59.57
56241;BME280;42155;53.096;23.226;2022-09-09T07:11:05;100130.44;;;11.68;59.70
56241;BME280;42155;53.096;23.226;2022-09-09T07:13:06;100142.63;;;11.71;59.68
56241;BME280;42155;53.096;23.226;2022-09-09T07:15:06;100154.50;;;11.67;59.63
56241;BME280;42155;53.096;23.226;2022-09-09T07:17:07;100157.16;;;11.67;60.61
56241;BME280;42155;53.096;23.226;2022-09-09T07:19:07;100156.44;;;11.65;60.71
56241;BME280;42155;53.096;23.226;2022-09-09T07:21:09;100130.13;;;11.51;60.85
56241;BME280;42155;53.096;23.226;2022-09-09T07:23:10;100150.06;;;11.56;60.58
56241;BME280;42155;53.096;23.226;2022-09-09T07:25:11;100157.06;;;11.57;60.62
56241;BME280;42155;53.096;23.226;2022-09-09T07:27:11;100128.94;;;11.43;61.15
56241;BME280;42155;53.096;23.226;2022-09-09T07:29:11;100139.44;;;11.45;61.14
56241;BME280;42155;53.096;23.226;2022-09-09T07:31:20;100134.34;;;11.53;61.22
56241;BME280;42155;53.096;23.226;2022-09-09T07:33:21;100154.03;;;11.62;61.51
56241;BME280;42155;53.096;23.226;2022-09-09T07:35:21;100147.59;;;11.64;61.75
56241;BME280;42155;53.096;23.226;2022-09-09T07:37:21;100146.50;;;11.67;61.25
56241;BME280;42155;53.096;23.226;2022-09-09T07:39:21;100150.75;;;11.69;61.00
56241;BME280;42155;53.096;23.226;2022-09-09T07:41:32;100153.13;;;11.72;61.62
56241;BME280;42155;53.096;23.226;2022-09-09T07:43:32;100143.09;;;11.76;61.53
56241;BME280;42155;53.096;23.226;2022-09-09T07:45:34;100102.00;;;11.37;61.20
56241;BME280;42155;53.096;23.226;2022-09-09T07:47:34;100155.03;;;11.82;61.22
56241;BME280;42155;53.096;23.226;2022-09-09T07:49:35;100162.94;;;11.83;60.81
56241;BME280;42155;53.096;23.226;2022-09-09T07:51:38;100162.81;;;11.85;61.12
56241;BME280;42155;53.096;23.226;2022-09-09T07:53:38;100161.22;;;11.82;60.95
56241;BME280;42155;53.096;23.226;2022-09-09T07:55:39;100158.47;;;11.84;61.75
56241;BME280;42155;53.096;23.226;2022-09-09T07:57:39;100160.16;;;11.85;61.69
56241;BME280;42155;53.096;23.226;2022-09-09T07:59:39;100159.16;;;11.86;62.08
56241;BME280;42155;53.096;23.226;2022-09-09T08:01:51;100149.50;;;11.85;62.26
56241;BME280;42155;53.096;23.226;2022-09-09T08:03:57;100143.00;;;11.66;62.21
56241;BME280;42155;53.096;23.226;2022-09-09T08:06:02;100169.09;;;11.84;62.46
56241;BME280;42155;53.096;23.226;2022-09-09T08:08:03;100128.81;;;11.56;62.29
56241;BME280;42155;53.096;23.226;2022-09-09T08:10:04;100186.00;;;11.83;62.54
56241;BME280;42155;53.096;23.226;2022-09-09T08:12:04;100177.28;;;11.81;62.72
56241;BME280;42155;53.096;23.226;2022-09-09T08:14:06;100182.75;;;11.79;62.89
56241;BME280;42155;53.096;23.226;2022-09-09T08:16:10;100173.94;;;11.79;63.16
56241;BME280;42155;53.096;23.226;2022-09-09T08:18:10;100196.13;;;11.78;62.94
56241;BME280;42155;53.096;23.226;2022-09-09T08:20:11;100192.03;;;11.73;63.63
56241;BME280;42155;53.096;23.226;2022-09-09T08:22:11;100170.69;;;11.64;62.90
56241;BME280;42155;53.096;23.226;2022-09-09T08:24:12;100195.56;;;11.74;63.21
56241;BME280;42155;53.096;23.226;2022-09-09T08:26:24;100201.13;;;11.71;63.54
56241;BME280;42155;53.096;23.226;2022-09-09T08:28:24;100200.53;;;11.67;63.43
56241;BME280;42155;53.096;23.226;2022-09-09T08:30:25;100206.94;;;11.65;63.88
56241;BME280;42155;53.096;23.226;2022-09-09T08:32:25;100168.06;;;11.41;64.07
56241;BME280;42155;53.096;23.226;2022-09-09T08:34:25;100125.75;;;11.06;64.44
56241;BME280;42155;53.096;23.226;2022-09-09T08:36:28;100207.94;;;11.53;64.41
56241;BME280;42155;53.096;23.226;2022-09-09T08:38:28;100180.88;;;11.36;64.38
56241;BME280;42155;53.096;23.226;2022-09-09T08:40:32;100127.69;;;10.70;64.78
56241;BME280;42155;53.096;23.226;2022-09-09T08:42:45;100176.56;;;11.13;65.37
56241;BME280;42155;53.096;23.226;2022-09-09T08:49:53;100211.81;;;11.26;66.11
56241;BME280;42155;53.096;23.226;2022-09-09T08:51:57;100201.09;;;11.16;66.81
56241;BME280;42155;53.096;23.226;2022-09-09T08:53:58;100186.38;;;11.01;66.90
56241;BME280;42155;53.096;23.226;2022-09-09T08:56:16;100209.19;;;11.15;66.90
56241;BME280;42155;53.096;23.226;2022-09-09T09:00:20;100210.75;;;11.06;67.54
56241;BME280;42155;53.096;23.226;2022-09-09T09:02:41;100191.28;;;10.94;68.18
56241;BME280;42155;53.096;23.226;2022-09-09T09:05:00;100212.06;;;11.01;68.48
56241;BME280;42155;53.096;23.226;2022-09-09T09:11:25;100098.72;;;10.34;69.11
56241;BME280;42155;53.096;23.226;2022-09-09T09:13:34;100207.47;;;10.91;69.89
56241;BME280;42155;53.096;23.226;2022-09-09T09:15:37;100203.25;;;10.89;69.70
56241;BME280;42155;53.096;23.226;2022-09-09T09:17:38;100146.50;;;10.45;70.28
56241;BME280;42155;53.096;23.226;2022-09-09T09:19:40;100194.56;;;10.87;70.50
56241;BME280;42155;53.096;23.226;2022-09-09T09:21:48;100199.63;;;10.90;70.83
56241;BME280;42155;53.096;23.226;2022-09-09T09:23:56;100189.84;;;10.90;70.78
56241;BME280;42155;53.096;23.226;2022-09-09T09:25:59;100204.00;;;10.91;71.76
56241;BME280;42155;53.096;23.226;2022-09-09T09:28:07;100062.69;;;9.96;70.97
56241;BME280;42155;53.096;23.226;2022-09-09T09:30:16;100204.84;;;10.91;71.02
56241;BME280;42155;53.096;23.226;2022-09-09T09:32:19;99988.13;;;9.43;70.85
56241;BME280;42155;53.096;23.226;2022-09-09T09:34:21;100088.72;;;9.91;71.64
56241;BME280;42155;53.096;23.226;2022-09-09T09:36:33;100063.41;;;9.98;72.12
56241;BME280;42155;53.096;23.226;2022-09-09T09:38:35;100012.69;;;9.45;71.74
56241;BME280;42155;53.096;23.226;2022-09-09T09:40:35;100218.81;;;10.82;71.82
56241;BME280;42155;53.096;23.226;2022-09-09T09:42:37;100224.22;;;10.81;71.70
56241;BME280;42155;53.096;23.226;2022-09-09T09:44:38;100228.59;;;10.82;72.28
56241;BME280;42155;53.096;23.226;2022-09-09T09:46:38;100240.66;;;10.86;72.17
56241;BME280;42155;53.096;23.226;2022-09-09T09:48:39;100237.53;;;10.92;71.72
56241;BME280;42155;53.096;23.226;2022-09-09T09:50:52;100234.63;;;10.95;72.47
56241;BME280;42155;53.096;23.226;2022-09-09T09:52:59;100249.63;;;10.96;71.72
56241;BME280;42155;53.096;23.226;2022-09-09T09:55:03;100088.00;;;10.00;72.38
56241;BME280;42155;53.096;23.226;2022-09-09T09:57:15;100155.41;;;10.44;72.18
56241;BME280;42155;53.096;23.226;2022-09-09T09:59:43;100247.66;;;10.98;72.47
56241;BME280;42155;53.096;23.226;2022-09-09T10:01:43;100143.94;;;10.32;71.92
56241;BME280;42155;53.096;23.226;2022-09-09T10:03:59;100244.78;;;11.01;73.06
56241;BME280;42155;53.096;23.226;2022-09-09T10:06:00;100124.81;;;10.16;72.35
56241;BME280;42155;53.096;23.226;2022-09-09T10:08:02;100241.50;;;11.09;72.08
56241;BME280;42155;53.096;23.226;2022-09-09T10:10:05;100249.38;;;11.10;72.64
56241;BME280;42155;53.096;23.226;2022-09-09T10:14:45;100242.38;;;11.09;73.05
56241;BME280;42155;53.096;23.226;2022-09-09T10:16:52;100243.31;;;11.08;72.48
56241;BME280;42155;53.096;23.226;2022-09-09T10:31:17;100258.69;;;11.16;73.00
56241;BME280;42155;53.096;23.226;2022-09-09T10:33:27;100257.59;;;11.18;73.14
56241;BME280;42155;53.096;23.226;2022-09-09T10:35:58;100255.31;;;11.14;73.00
56241;BME280;42155;53.096;23.226;2022-09-09T10:38:12;100263.50;;;11.22;73.35
56241;BME280;42155;53.096;23.226;2022-09-09T10:42:24;100223.78;;;11.09;73.31
56241;BME280;42155;53.096;23.226;2022-09-09T10:44:33;100264.84;;;11.39;73.16
56241;BME280;42155;53.096;23.226;2022-09-09T10:51:02;100257.56;;;11.41;73.09
56241;BME280;42155;53.096;23.226;2022-09-09T10:53:18;100243.09;;;11.22;72.86
56241;BME280;42155;53.096;23.226;2022-09-09T10:55:27;100249.75;;;11.39;73.28
56241;BME280;42155;53.096;23.226;2022-09-09T10:57:39;100261.69;;;11.45;72.59
56241;BME280;42155;53.096;23.226;2022-09-09T10:59:46;100149.88;;;10.58;73.01
56241;BME280;42155;53.096;23.226;2022-09-09T11:02:02;100264.72;;;11.52;72.90
56241;BME280;42155;53.096;23.226;2022-09-09T11:04:25;100248.16;;;11.48;72.92
56241;BME280;42155;53.096;23.226;2022-09-09T11:06:32;100264.84;;;11.61;72.55
56241;BME280;42155;53.096;23.226;2022-09-09T11:08:36;100271.59;;;11.65;73.07
56241;BME280;42155;53.096;23.226;2022-09-09T11:11:02;100281.88;;;11.70;72.85
56241;BME280;42155;53.096;23.226;2022-09-09T11:13:09;100276.50;;;11.81;72.60
56241;BME280;42155;53.096;23.226;2022-09-09T11:15:20;100278.97;;;11.84;72.11
56241;BME280;42155;53.096;23.226;2022-09-09T11:17:29;100159.53;;;11.04;72.06
56241;BME280;42155;53.096;23.226;2022-09-09T11:21:40;100178.38;;;11.24;72.26
56241;BME280;42155;53.096;23.226;2022-09-09T11:23:48;100157.13;;;11.12;72.47
56241;BME280;42155;53.096;23.226;2022-09-09T11:25:55;100237.50;;;11.70;71.90
56241;BME280;42155;53.096;23.226;2022-09-09T11:28:10;100268.66;;;11.91;72.27
56241;BME280;42155;53.096;23.226;2022-09-09T11:30:22;100273.00;;;11.92;72.17
56241;BME280;42155;53.096;23.226;2022-09-09T11:32:46;100257.53;;;11.97;72.67
56241;BME280;42155;53.096;23.226;2022-09-09T11:34:53;100280.97;;;12.03;72.12
56241;BME280;42155;53.096;23.226;2022-09-09T11:39:11;100273.72;;;12.05;72.77
56241;BME280;42155;53.096;23.226;2022-09-09T11:41:16;100270.66;;;12.10;72.21
56241;BME280;42155;53.096;23.226;2022-09-09T11:43:40;100271.19;;;12.04;72.92
56241;BME280;42155;53.096;23.226;2022-09-09T11:45:42;100276.00;;;12.10;72.05
56241;BME280;42155;53.096;23.226;2022-09-09T11:47:54;100271.31;;;12.02;72.64
56241;BME280;42155;53.096;23.226;2022-09-09T11:50:28;100267.91;;;12.00;72.55
56241;BME280;42155;53.096;23.226;2022-09-09T11:52:38;100266.00;;;12.02;72.43
56241;BME280;42155;53.096;23.226;2022-09-09T11:54:47;100271.03;;;12.05;72.78
56241;BME280;42155;53.096;23.226;2022-09-09T11:56:48;100225.66;;;11.75;72.54